ETOU/WIE METAR and TAF weather

Enter ICAO airport designator
Station Type Date Time Source
ETOU METAR 2019/04/25 20:56 UTC NOAA

ETOU 252056Z AUTO 28009KT 9999 OVC140 13/06 A2981 RMK AO2 SLP096 T01340058 52039 $


Station Type Date Time Source
ETOU Decoded METAR 2019/04/25 20:56 UTC NOAA

Wiesbaden, Germany (ETOU) 50-03N 008-20E
Apr 25, 2019 - 04:56 PM EDT / 2019.04.25 2056 UTC
Wind: from the W (280 degrees) at 10 MPH (9 KT):0
Visibility: greater than 7 mile(s):0
Sky conditions: overcast
Temperature: 56.1 F (13.4 C)
Dew Point: 42.4 F (5.8 C)
Relative Humidity: 59%
Pressure (altimeter): 29.81 in. Hg (1009 hPa)
Pressure tendency: 0.12 inches (3.9 hPa) higher than three hours ago
ob: ETOU 252056Z AUTO 28009KT 9999 OVC140 13/06 A2981 RMK AO2 SLP096 T01340058 52039
cycle: 21

Station Type Date Time Source
ETOU TAF 2019/04/25 19:19 UTC NOAA

TAF
AMD ETOU 251916Z 2519/2701 25012KT 9999 BKN030 QNH2971INS
TEMPO 2519/2521 25015G25KT
BECMG 2606/2607 27009KT 8000 -SHRA BKN020 610505 QNH2976INS
BECMG 2612/2613 28006KT 9999 NSW BKN040 QNH2984INS TX17/2519Z TN07/2604Z

Example: see airport list